Terminal Aerodrome Forecast
Issued by NWS

Home | Current Version | Previous Version | Graphics & Text | Print | Product List | Glossary On
Versions: 1 2 3 4 5 6 7 8 9 10 11 12 13 14 15 16 17 18 19
000
FTUS43 KBIS 191008 AAA
TAFMOT
TAF AMD
KMOT 191008Z 1910/2006 08007KT P6SM FEW010 BKN150
     FM191200 08008KT P6SM SCT008 OVC110
     FM191600 10011KT P6SM BKN180
     FM192100 10009KT P6SM SCT250=

USA.gov is the U.S. government's official web portal to all federal, state and local government web resources and services.